createdAt,value
2023-01-11T00:01:52.006Z,50.47
2023-01-11T00:04:20.387Z,55.60
2023-01-11T00:06:48.521Z,51.50
2023-01-11T00:09:18.089Z,56.47
2023-01-11T00:11:46.142Z,55.30
2023-01-11T00:14:15.381Z,58.65
2023-01-11T00:16:43.434Z,57.95
2023-01-11T00:19:11.625Z,59.83
2023-01-11T00:21:39.736Z,61.50
2023-01-11T00:24:08.111Z,57.78
2023-01-11T00:26:37.581Z,60.15
2023-01-11T00:29:05.735Z,61.85
2023-01-11T00:31:33.828Z,59.33
2023-01-11T00:34:02.008Z,60.50
2023-01-11T00:36:30.071Z,60.05
2023-01-11T00:38:58.220Z,59.70
2023-01-11T00:41:43.441Z,60.83
2023-01-11T00:44:30.350Z,60.22
2023-01-11T00:47:15.731Z,58.65
2023-01-11T00:49:44.145Z,59.40
2023-01-11T00:52:12.295Z,59.05
2023-01-11T00:54:40.778Z,57.85
2023-01-11T00:57:09.208Z,60.28
2023-01-11T00:59:39.457Z,58.28
2023-01-11T01:02:08.207Z,58.83
2023-01-11T01:04:36.394Z,57.85
2023-01-11T01:07:04.542Z,59.20
2023-01-11T01:09:32.619Z,56.85
2023-01-11T01:12:01.976Z,55.75
2023-01-11T01:14:29.931Z,55.22
2023-01-11T01:17:00.304Z,55.17
2023-01-11T01:19:28.833Z,55.65
2023-01-11T01:21:57.105Z,54.92
2023-01-11T01:24:25.341Z,53.83
2023-01-11T01:26:53.462Z,54.22
2023-01-11T01:29:21.812Z,52.20
2023-01-11T01:31:49.876Z,53.55
2023-01-11T01:34:19.469Z,54.15
2023-01-11T01:36:47.511Z,51.50
2023-01-11T01:39:15.683Z,55.72
2023-01-11T01:41:43.764Z,52.92
2023-01-11T01:44:49.030Z,52.40
2023-01-11T01:47:17.146Z,53.15
2023-01-11T01:49:46.618Z,52.78
2023-01-11T01:52:14.782Z,52.88
2023-01-11T01:54:45.975Z,55.17
2023-01-11T01:57:15.487Z,54.85
2023-01-11T01:59:43.541Z,51.25
2023-01-11T02:02:12.270Z,55.05
2023-01-11T02:04:41.026Z,53.25
2023-01-11T02:07:11.975Z,55.78
2023-01-11T02:09:42.249Z,55.95
2023-01-11T02:12:10.508Z,56.35
2023-01-11T02:14:38.667Z,55.50
2023-01-11T02:17:06.786Z,55.03
2023-01-11T02:19:44.471Z,55.47
2023-01-11T02:22:36.298Z,56.35
2023-01-11T02:25:15.032Z,53.75
2023-01-11T02:27:59.241Z,56.05
2023-01-11T02:30:31.028Z,53.78
2023-01-11T02:33:01.075Z,53.85
2023-01-11T02:35:32.755Z,56.45
2023-01-11T02:38:03.089Z,57.22
2023-01-11T02:40:36.226Z,55.47
2023-01-11T02:43:41.338Z,55.72
2023-01-11T02:46:11.311Z,60.13
2023-01-11T02:48:43.040Z,59.78
2023-01-11T02:51:13.552Z,57.47
2023-01-11T02:53:43.651Z,59.97
2023-01-11T02:56:13.151Z,58.67
2023-01-11T02:58:43.894Z,56.00
2023-01-11T03:01:12.118Z,57.20
2023-01-11T03:03:40.197Z,56.85
2023-01-11T03:06:13.941Z,54.78
2023-01-11T03:08:55.643Z,54.80
2023-01-11T03:11:43.418Z,54.38
2023-01-11T03:14:18.465Z,53.42
2023-01-11T03:16:48.130Z,51.42
2023-01-11T03:19:20.954Z,50.75
2023-01-11T03:21:51.296Z,51.50
2023-01-11T03:24:24.899Z,50.38
2023-01-11T03:26:58.549Z,49.60
2023-01-11T03:29:30.634Z,48.55
2023-01-11T03:32:05.653Z,47.78
2023-01-11T03:34:35.707Z,46.92
2023-01-11T03:37:07.051Z,46.00
2023-01-11T03:39:36.122Z,45.63
2023-01-11T03:42:05.499Z,44.53
2023-01-11T03:44:36.814Z,45.30
2023-01-11T03:47:06.334Z,45.00
2023-01-11T03:49:36.382Z,43.17
2023-01-11T03:52:05.305Z,43.03
2023-01-11T03:54:33.370Z,43.33
2023-01-11T03:57:04.696Z,43.50
2023-01-11T03:59:34.186Z,41.30
2023-01-11T04:02:02.397Z,43.40
2023-01-11T04:04:30.539Z,43.03
2023-01-11T04:06:58.733Z,40.70
2023-01-11T04:09:26.908Z,42.10
2023-01-11T04:11:55.120Z,40.20
2023-01-11T04:14:23.388Z,40.92
2023-01-11T04:16:52.911Z,40.75
2023-01-11T04:19:21.058Z,40.58
2023-01-11T04:21:49.156Z,40.13
2023-01-11T04:24:18.550Z,39.00
2023-01-11T04:26:46.689Z,39.10
2023-01-11T04:29:14.980Z,38.50
2023-01-11T04:31:43.234Z,37.50
2023-01-11T04:34:13.610Z,37.88
2023-01-11T04:36:41.787Z,37.47
2023-01-11T04:39:10.954Z,37.22
2023-01-11T04:41:56.284Z,36.65
2023-01-11T04:44:24.434Z,36.28
2023-01-11T04:46:52.572Z,35.30
2023-01-11T04:49:22.060Z,34.30
2023-01-11T04:51:50.215Z,35.28
2023-01-11T04:54:18.534Z,32.78
2023-01-11T04:56:46.707Z,34.47
2023-01-11T04:59:15.387Z,34.17
2023-01-11T05:01:43.554Z,33.65
2023-01-11T05:04:13.503Z,31.75
2023-01-11T05:06:43.223Z,33.08
2023-01-11T05:09:13.175Z,32.72
2023-01-11T05:11:41.410Z,32.25
2023-01-11T05:14:09.576Z,31.95
2023-01-11T05:16:38.089Z,31.92
2023-01-11T05:19:06.304Z,31.63
2023-01-11T05:21:35.796Z,31.77
2023-01-11T05:24:06.359Z,30.33
2023-01-11T05:26:35.465Z,29.65
2023-01-11T05:29:04.581Z,29.63
2023-01-11T05:31:32.881Z,29.75
2023-01-11T05:34:01.049Z,29.60
2023-01-11T05:36:29.383Z,28.60
2023-01-11T05:38:57.863Z,29.60
2023-01-11T05:41:27.987Z,27.90
2023-01-11T05:44:13.731Z,27.83
2023-01-11T05:46:42.627Z,28.05
2023-01-11T05:49:10.837Z,27.77
2023-01-11T05:51:39.255Z,26.83
2023-01-11T05:54:08.134Z,26.50
2023-01-11T05:56:37.682Z,26.30
2023-01-11T05:59:05.772Z,26.25
2023-01-11T06:01:33.911Z,25.90
2023-01-11T06:04:02.100Z,25.58
2023-01-11T06:06:30.253Z,25.63
2023-01-11T06:08:58.423Z,25.88
2023-01-11T06:11:26.523Z,25.27
2023-01-11T06:13:56.034Z,23.88
2023-01-11T06:16:24.387Z,24.70
2023-01-11T06:18:53.556Z,23.90
2023-01-11T06:21:21.930Z,23.45
2023-01-11T06:23:51.272Z,24.35
2023-01-11T06:26:20.407Z,23.20
2023-01-11T06:28:48.767Z,22.48
2023-01-11T06:31:18.606Z,22.70
2023-01-11T06:33:46.945Z,21.92
2023-01-11T06:36:15.635Z,21.90
2023-01-11T06:38:43.949Z,22.02
2023-01-11T06:41:12.150Z,22.67
2023-01-11T06:43:41.956Z,24.50
2023-01-11T06:46:13.476Z,23.70
2023-01-11T06:48:43.075Z,24.92
2023-01-11T06:51:12.165Z,23.75
2023-01-11T06:53:40.381Z,22.35
2023-01-11T06:56:09.073Z,23.23
2023-01-11T06:58:37.806Z,24.83
2023-01-11T07:01:06.454Z,28.13
2023-01-11T07:03:34.558Z,28.33
2023-01-11T07:06:04.492Z,34.13
2023-01-11T07:08:32.658Z,40.33
2023-01-11T07:11:00.790Z,33.15
2023-01-11T07:13:28.963Z,38.92
2023-01-11T07:15:58.445Z,34.63
2023-01-11T07:18:26.624Z,46.00
2023-01-11T07:20:54.687Z,46.03
2023-01-11T07:23:24.170Z,46.25
2023-01-11T07:25:52.580Z,43.50
2023-01-11T07:28:20.656Z,52.20
2023-01-11T07:30:58.337Z,61.97
2023-01-11T07:33:27.459Z,51.08
2023-01-11T07:35:55.740Z,55.70
2023-01-11T07:38:25.306Z,55.83
2023-01-11T07:40:53.455Z,53.72
2023-01-11T07:43:23.244Z,55.50
2023-01-11T07:45:52.296Z,57.97
2023-01-11T07:48:24.713Z,58.00
2023-01-11T07:50:53.557Z,58.05
2023-01-11T07:53:21.668Z,56.40
2023-01-11T07:55:51.138Z,54.67
2023-01-11T07:58:19.560Z,54.47
2023-01-11T08:00:47.736Z,55.13
2023-01-11T08:03:16.075Z,54.63
2023-01-11T08:05:44.224Z,52.83
2023-01-11T08:08:12.444Z,53.75
2023-01-11T08:10:42.050Z,52.75
2023-01-11T08:13:29.895Z,51.28
2023-01-11T08:15:58.762Z,50.38
2023-01-11T08:18:26.911Z,48.88
2023-01-11T08:20:55.032Z,48.40
2023-01-11T08:23:23.073Z,48.53
2023-01-11T08:25:51.262Z,46.75
2023-01-11T08:28:20.706Z,47.10
2023-01-11T08:30:48.888Z,47.35
2023-01-11T08:33:16.999Z,46.35
2023-01-11T08:35:45.159Z,46.75
2023-01-11T08:38:13.243Z,45.65
2023-01-11T08:40:41.367Z,46.08
2023-01-11T08:43:09.483Z,45.13
2023-01-11T08:45:38.972Z,42.85
2023-01-11T08:48:07.767Z,43.40
2023-01-11T08:50:35.811Z,42.88
2023-01-11T08:53:03.945Z,42.30
2023-01-11T08:55:32.037Z,41.70
2023-01-11T08:58:00.201Z,41.95
2023-01-11T09:00:28.486Z,39.85
2023-01-11T09:02:58.081Z,40.22
2023-01-11T09:05:26.255Z,40.13
2023-01-11T09:07:55.542Z,38.85
2023-01-11T09:10:26.926Z,38.58
2023-01-11T09:12:55.145Z,39.40
2023-01-11T09:15:23.279Z,38.13
2023-01-11T09:17:51.467Z,38.83
2023-01-11T09:20:21.266Z,36.67
2023-01-11T09:22:52.604Z,35.80
2023-01-11T09:25:20.946Z,35.65
2023-01-11T09:27:49.594Z,36.60
2023-01-11T09:30:19.490Z,36.33
2023-01-11T09:32:47.770Z,36.25
2023-01-11T09:35:16.912Z,34.80
2023-01-11T09:37:50.318Z,35.35
2023-01-11T09:40:20.524Z,34.08
2023-01-11T09:42:52.578Z,32.67
2023-01-11T09:45:21.776Z,34.03
2023-01-11T09:47:51.202Z,32.72
2023-01-11T09:50:21.952Z,33.65
2023-01-11T09:52:53.288Z,34.60
2023-01-11T09:55:27.023Z,36.90
2023-01-11T09:58:28.390Z,39.28
2023-01-11T10:01:01.429Z,40.72
2023-01-11T10:03:45.615Z,38.92
2023-01-11T10:06:17.611Z,38.88
2023-01-11T10:18:32.087Z,41.90
2023-01-11T10:18:34.070Z,41.05
2023-01-11T10:20:35.464Z,45.90
2023-01-11T10:23:06.372Z,44.22
2023-01-11T10:25:42.953Z,45.00
2023-01-11T10:28:17.473Z,44.63
2023-01-11T10:31:01.455Z,46.05
2023-01-11T10:33:46.350Z,47.78
2023-01-11T10:36:30.783Z,50.80
2023-01-11T10:39:15.884Z,46.78
2023-01-11T10:41:52.555Z,49.22
2023-01-11T10:44:24.551Z,53.17
2023-01-11T10:46:54.476Z,52.78
2023-01-11T10:49:33.645Z,57.35
2023-01-11T10:52:07.664Z,58.70
2023-01-11T10:54:39.069Z,62.95
2023-01-11T10:57:16.000Z,72.55
2023-01-11T11:00:10.616Z,74.22
2023-01-11T11:02:50.042Z,74.70
2023-01-11T11:05:24.288Z,73.78
2023-01-11T11:07:54.145Z,75.28
2023-01-11T11:10:25.170Z,76.05
2023-01-11T11:12:58.626Z,73.93
2023-01-11T11:15:30.295Z,78.45
2023-01-11T11:17:58.509Z,76.28
2023-01-11T11:20:29.352Z,78.22
2023-01-11T11:22:57.696Z,77.97
2023-01-11T11:25:29.657Z,75.22
2023-01-11T11:28:02.236Z,73.60
2023-01-11T11:30:31.287Z,77.30
2023-01-11T11:33:01.076Z,81.43
2023-01-11T11:35:39.281Z,82.05
2023-01-11T11:38:07.492Z,81.25
2023-01-11T11:40:36.551Z,80.53
2023-01-11T11:43:22.383Z,79.68
2023-01-11T11:45:54.475Z,78.93
2023-01-11T11:48:22.930Z,77.25
2023-01-11T11:50:50.999Z,72.22
2023-01-11T11:53:27.827Z,76.38
2023-01-11T11:55:55.949Z,72.43
2023-01-11T11:58:26.162Z,74.30
2023-01-11T12:00:54.550Z,72.70
2023-01-11T12:03:24.731Z,72.07
2023-01-11T12:05:55.373Z,66.65
2023-01-11T12:08:24.591Z,63.25
2023-01-11T12:10:54.637Z,65.28
2023-01-11T12:13:32.235Z,62.45
2023-01-11T12:16:01.410Z,62.28
2023-01-11T12:18:32.963Z,57.65
2023-01-11T12:21:11.919Z,58.45
2023-01-11T12:23:40.771Z,57.47
2023-01-11T12:26:20.813Z,57.30
2023-01-11T12:29:14.486Z,54.67
2023-01-11T12:31:55.376Z,52.38
2023-01-11T12:34:41.720Z,47.10
2023-01-11T12:37:15.492Z,47.05
2023-01-11T12:39:46.855Z,46.58
2023-01-11T12:42:33.519Z,45.33
2023-01-11T12:45:10.867Z,45.60
2023-01-11T12:47:51.827Z,45.03
2023-01-11T12:50:22.297Z,47.33
2023-01-11T12:53:09.261Z,47.80
2023-01-11T12:55:43.069Z,47.60
2023-01-11T12:58:15.110Z,49.38
2023-01-11T13:01:15.984Z,50.72
2023-01-11T13:03:57.553Z,51.33
2023-01-11T13:06:26.928Z,52.42
2023-01-11T13:08:58.646Z,58.63
2023-01-11T13:11:36.400Z,61.03
2023-01-11T13:14:17.525Z,60.95
2023-01-11T13:16:48.746Z,58.28
2023-01-11T13:19:19.395Z,58.85
2023-01-11T13:21:53.363Z,61.20
2023-01-11T13:24:26.304Z,57.28
2023-01-11T13:26:55.503Z,58.42
2023-01-11T13:29:26.690Z,47.22
2023-01-11T13:31:56.332Z,25.50
2023-01-11T13:34:26.324Z,33.13
2023-01-11T13:36:56.553Z,37.40
2023-01-11T13:39:28.505Z,39.03
2023-01-11T13:41:57.100Z,38.60
2023-01-11T13:44:26.348Z,39.83
2023-01-11T13:47:01.785Z,41.58
2023-01-11T13:49:40.223Z,41.92
2023-01-11T13:52:12.548Z,41.85
2023-01-11T13:54:42.542Z,40.95
2023-01-11T13:57:12.943Z,41.28
2023-01-11T13:59:44.275Z,44.00
2023-01-11T14:02:16.953Z,45.47
2023-01-11T14:04:47.901Z,49.75
2023-01-11T14:07:22.880Z,49.05
2023-01-11T14:10:26.029Z,52.35
2023-01-11T14:13:07.267Z,56.33
2023-01-11T14:15:38.119Z,59.28
2023-01-11T14:18:26.578Z,58.35
2023-01-11T14:21:00.695Z,58.92
2023-01-11T14:23:31.880Z,60.30
2023-01-11T14:26:24.704Z,59.55
2023-01-11T14:28:59.423Z,60.17
2023-01-11T14:31:56.920Z,62.50
2023-01-11T14:35:01.204Z,62.28
2023-01-11T14:37:52.255Z,62.25
2023-01-11T14:40:27.878Z,62.03
2023-01-11T14:43:18.743Z,63.47
2023-01-11T14:45:54.384Z,65.93
2023-01-11T14:48:29.350Z,64.18
2023-01-11T14:51:07.681Z,63.92
2023-01-11T14:53:39.050Z,65.97
2023-01-11T14:56:22.598Z,66.53
2023-01-11T14:59:02.759Z,64.90
2023-01-11T15:01:30.872Z,66.38
2023-01-11T15:03:59.067Z,64.43
2023-01-11T15:06:31.703Z,65.13
2023-01-11T15:09:01.208Z,65.72
2023-01-11T15:11:37.109Z,65.43
2023-01-11T15:14:07.382Z,67.20
2023-01-11T15:16:53.250Z,69.68
2023-01-11T15:19:26.759Z,67.18
2023-01-11T15:21:55.843Z,67.90
2023-01-11T15:24:27.387Z,64.93
2023-01-11T15:26:55.623Z,70.47
2023-01-11T15:29:24.683Z,67.57
2023-01-11T15:32:08.518Z,68.57
2023-01-11T15:34:44.006Z,72.65
2023-01-11T15:37:44.824Z,75.30
2023-01-11T15:40:19.376Z,80.45
2023-01-11T15:43:07.896Z,91.88
2023-01-11T15:46:16.778Z,87.30
2023-01-11T15:48:56.019Z,93.03
2023-01-11T15:51:36.286Z,89.93
2023-01-11T15:54:27.965Z,91.60
2023-01-11T15:57:06.205Z,85.55
2023-01-11T15:59:57.276Z,101.15
2023-01-11T16:02:49.047Z,95.63
2023-01-11T16:05:19.215Z,95.53
2023-01-11T16:07:51.884Z,98.72
2023-01-11T16:10:49.269Z,99.68
2023-01-11T16:13:35.655Z,98.78
2023-01-11T16:16:17.975Z,99.97
2023-01-11T16:18:47.411Z,96.60
2023-01-11T16:21:19.218Z,97.30
2023-01-11T16:23:47.564Z,96.75
2023-01-11T16:26:19.238Z,95.07
2023-01-11T16:28:52.857Z,95.43
2023-01-11T16:31:21.096Z,96.43
2023-01-11T16:33:49.964Z,91.57
2023-01-11T16:36:21.095Z,93.90
2023-01-11T16:39:02.336Z,93.38
2023-01-11T16:41:32.863Z,93.53
2023-01-11T16:44:03.741Z,92.00
2023-01-11T16:47:01.501Z,92.35
2023-01-11T16:49:29.656Z,89.28
2023-01-11T16:51:59.944Z,91.88
2023-01-11T16:54:29.951Z,90.28
2023-01-11T16:56:58.075Z,88.43
2023-01-11T16:59:30.740Z,88.03
2023-01-11T17:01:59.951Z,86.07
2023-01-11T17:04:29.994Z,89.55
2023-01-11T17:06:58.213Z,88.85
2023-01-11T17:09:29.586Z,85.50
2023-01-11T17:11:57.746Z,84.07
2023-01-11T17:14:47.500Z,83.85
2023-01-11T17:17:16.413Z,82.15
2023-01-11T17:19:45.533Z,80.18
2023-01-11T17:22:19.035Z,79.38
2023-01-11T17:24:49.623Z,77.60
2023-01-11T17:27:19.248Z,79.72
2023-01-11T17:29:48.798Z,75.43
2023-01-11T17:32:18.264Z,73.75
2023-01-11T17:34:46.332Z,74.50
2023-01-11T17:37:15.262Z,73.38
2023-01-11T17:39:44.834Z,72.60
2023-01-11T17:42:31.450Z,70.55
2023-01-11T17:45:16.848Z,69.05
2023-01-11T17:47:46.655Z,69.75
2023-01-11T17:50:26.204Z,65.38
2023-01-11T17:53:02.908Z,69.10
2023-01-11T17:55:31.099Z,65.22
2023-01-11T17:58:12.304Z,65.50
2023-01-11T18:00:42.527Z,64.70
2023-01-11T18:03:14.581Z,63.20
2023-01-11T18:05:43.109Z,60.97
2023-01-11T18:08:18.506Z,59.63
2023-01-11T18:10:51.071Z,61.70
2023-01-11T18:13:23.858Z,62.13
2023-01-11T18:15:53.628Z,63.35
2023-01-11T18:18:42.547Z,65.65
2023-01-11T18:21:51.730Z,63.40
2023-01-11T18:24:43.356Z,67.00
2023-01-11T18:27:28.452Z,61.88
2023-01-11T18:29:57.699Z,67.53
2023-01-11T18:32:33.441Z,62.83
2023-01-11T18:35:01.626Z,61.78
2023-01-11T18:37:29.693Z,60.10
2023-01-11T18:39:59.372Z,62.85
2023-01-11T18:42:29.712Z,62.03
2023-01-11T18:44:57.887Z,61.67
2023-01-11T18:47:28.541Z,60.42
2023-01-11T18:49:56.806Z,59.83
2023-01-11T18:52:27.523Z,60.85
2023-01-11T18:54:55.780Z,61.17
2023-01-11T18:57:23.926Z,60.78
2023-01-11T18:59:53.467Z,61.35
2023-01-11T19:02:24.059Z,60.85
2023-01-11T19:04:54.219Z,59.75
2023-01-11T19:07:23.061Z,65.93
2023-01-11T19:09:51.338Z,71.20
2023-01-11T19:12:19.506Z,81.72
2023-01-11T19:14:47.575Z,88.05
2023-01-11T19:17:15.745Z,85.10
2023-01-11T19:19:43.870Z,90.00
2023-01-11T19:22:13.381Z,104.85
2023-01-11T19:24:41.511Z,116.20
2023-01-11T19:27:09.746Z,105.65
2023-01-11T19:29:37.892Z,105.88
2023-01-11T19:32:06.651Z,102.40
2023-01-11T19:34:34.886Z,106.93
2023-01-11T19:37:03.086Z,102.30
2023-01-11T19:39:32.673Z,120.28
2023-01-11T19:42:02.356Z,107.03
2023-01-11T19:44:31.866Z,116.05
2023-01-11T19:47:10.939Z,104.15
2023-01-11T19:49:40.549Z,108.82
2023-01-11T19:52:12.541Z,114.38
2023-01-11T19:54:43.056Z,108.18
2023-01-11T19:57:11.738Z,110.00
2023-01-11T19:59:39.806Z,108.93
2023-01-11T20:02:08.109Z,111.88
2023-01-11T20:04:37.220Z,103.13
2023-01-11T20:07:05.739Z,109.03
2023-01-11T20:09:33.933Z,104.95
2023-01-11T20:12:03.572Z,105.47
2023-01-11T20:14:31.767Z,106.40
2023-01-11T20:16:59.927Z,106.03
2023-01-11T20:19:28.011Z,105.95
2023-01-11T20:21:56.603Z,102.13
2023-01-11T20:24:29.684Z,105.40
2023-01-11T20:26:58.598Z,103.35
2023-01-11T20:29:28.116Z,101.47
2023-01-11T20:31:57.885Z,101.07
2023-01-11T20:34:31.166Z,102.38
2023-01-11T20:36:59.240Z,100.35
2023-01-11T20:39:27.712Z,96.78
2023-01-11T20:41:55.800Z,97.90
2023-01-11T20:44:24.990Z,98.50
2023-01-11T20:46:54.727Z,97.18
2023-01-11T20:49:23.300Z,95.38
2023-01-11T20:51:51.399Z,93.50
2023-01-11T20:54:19.759Z,94.60
2023-01-11T20:56:47.900Z,96.05
2023-01-11T20:59:19.616Z,89.97
2023-01-11T21:01:47.824Z,90.57
2023-01-11T21:04:17.900Z,92.25
2023-01-11T21:06:48.047Z,92.22
2023-01-11T21:09:17.015Z,91.03
2023-01-11T21:11:52.436Z,91.68
2023-01-11T21:14:20.899Z,89.85
2023-01-11T21:16:49.011Z,86.90
2023-01-11T21:19:18.542Z,83.93
2023-01-11T21:21:48.988Z,83.07
2023-01-11T21:24:17.905Z,84.57
2023-01-11T21:26:48.030Z,83.97
2023-01-11T21:29:16.244Z,81.40
2023-01-11T21:31:44.448Z,79.53
2023-01-11T21:34:12.969Z,80.88
2023-01-11T21:36:42.546Z,80.72
2023-01-11T21:39:12.937Z,78.95
2023-01-11T21:41:58.040Z,77.40
2023-01-11T21:44:28.685Z,78.35
2023-01-11T21:46:56.926Z,75.78
2023-01-11T21:49:25.314Z,78.15
2023-01-11T21:51:54.882Z,72.53
2023-01-11T21:54:23.042Z,67.45
2023-01-11T21:56:51.478Z,69.15
2023-01-11T21:59:20.448Z,68.43
2023-01-11T22:01:49.898Z,69.45
2023-01-11T22:04:18.851Z,65.63
2023-01-11T22:06:51.011Z,67.93
2023-01-11T22:09:20.856Z,67.22
2023-01-11T22:11:49.630Z,64.20
2023-01-11T22:14:17.752Z,65.72
2023-01-11T22:16:45.848Z,65.93
2023-01-11T22:19:14.090Z,63.95
2023-01-11T22:21:42.503Z,62.67
2023-01-11T22:24:10.883Z,61.92
2023-01-11T22:26:40.426Z,61.92
2023-01-11T22:29:15.951Z,61.97
2023-01-11T22:31:46.840Z,61.85
2023-01-11T22:34:15.073Z,62.85
2023-01-11T22:36:43.384Z,59.75
2023-01-11T22:39:11.633Z,60.33
2023-01-11T22:41:41.264Z,59.03
2023-01-11T22:44:09.405Z,60.65
2023-01-11T22:46:37.527Z,58.03
2023-01-11T22:49:06.348Z,57.70
2023-01-11T22:51:34.467Z,58.00
2023-01-11T22:54:02.673Z,55.90
2023-01-11T22:56:30.842Z,56.53
2023-01-11T22:59:00.357Z,55.72
2023-01-11T23:01:29.358Z,55.47
2023-01-11T23:03:57.574Z,54.13
2023-01-11T23:06:26.974Z,54.17
2023-01-11T23:08:55.199Z,54.38
2023-01-11T23:11:41.864Z,53.65
2023-01-11T23:14:12.994Z,54.13
2023-01-11T23:16:41.174Z,53.47
2023-01-11T23:19:09.647Z,52.30
2023-01-11T23:21:40.199Z,53.65
2023-01-11T23:24:09.139Z,51.65
2023-01-11T23:26:37.335Z,52.90
2023-01-11T23:29:05.612Z,51.72
2023-01-11T23:31:35.292Z,50.97
2023-01-11T23:34:03.739Z,51.97
2023-01-11T23:36:34.208Z,50.35
2023-01-11T23:39:02.382Z,50.05
2023-01-11T23:41:47.808Z,49.50
2023-01-11T23:44:16.909Z,49.13
2023-01-11T23:47:03.943Z,48.70
2023-01-11T23:49:32.366Z,49.42
2023-01-11T23:52:00.491Z,47.35
2023-01-11T23:54:29.377Z,47.10
2023-01-11T23:56:57.474Z,47.33
2023-01-11T23:59:25.606Z,47.17
